Accueil
METAR-TAF:

METAR-TAF

Aéroports :

Karâchi, Pakistan

Aéroport international Jinnah

latitude: 24-54N, longitude: 067-08E, altitude: 21 m

Observation

Le bulletin a été fait il y a 1 heure et 17 minutes, à 03:55 UTC
Vent calme
Température 33°C
Humidité 59%
Pression 999 hPa
Visibilité: 6000 m
Quelques nuages à une hauteur de 2000 ft
Nuages fragmentés à une hauteur de 10000 ft

METAR: OPKC 260355Z 00000KT 6000 FEW020 BKN100 33/24 Q0999 NOSIG

Heure: 10:12 (05:12 UTC)


TAF: absent

Observations et prévisions météorologiques de plus de 4000 aéroports (messages METAR et TAF).

Les stations disponibles sont représentées par des disques jaunes et rouges sur la carte.

Passer la souris dessus pour voir le nom de la station.

Cliquer dessus pour voir les observations et prévisions météorologiques.

Pour changer de carte: cliquez sur les boutons verts avec une croix noire pour zoomer, sur le bouton vert avec un tiret pour effectuer un zoom arrière, ou sur les flèches vertes pour les cartes adjacentes.


METAR-TAF: